Arena, WI

8:39 PM CDT on May 25, 2015 (GMT -0500)
Helena Road | | Change Station
CLOSE
Current Station
Personal Weather Station
Location: Arena, WI
Elevation: 722 ft
Nearby Weather Stations

Elev 722 ft 43.18 °N, 89.98 °W | Updated 42 seconds ago

Partly Cloudy
Partly Cloudy
74.0 °F
Feels Like 76 °F
N
10.0
Wind Variable Wind from SW
Gusts 18.0 mph

Today
High -- | Low -- °F
--% Chance of Precip.
Yesterday
High -- | Low -- °F
Precip. -- in
5:27 AM 8:26 PM
First Quarter, 53% visible
Pressure 29.80 in
Visibility 10.0 miles
Clouds Clear
Heat Index 76 °F
Dew Point 63 °F
Humidity 68%
Rainfall 0.52 in
Snow Depth Not available.
UV 0 out of 12
Pollen 3.00 out of 12
Air Quality Not available.
Flu Activity Sporadic
METAR KLNR 260056Z AUTO 21009KT 10SM CLR 24/16 A2982 RMK AO2 SLP090 T02390161 $

More Conditions Fewer Conditions

Pressure 29.80 in
Visibility 10.0 miles
Clouds Clear
Heat Index 76 °F
Dew Point 63 °F
Humidity 68%
Rainfall 0.52 in
Snow Depth Not available.
UV 0 out of 12
Pollen 3.00 out of 12
Air Quality Not available.
Flu Activity Sporadic
METAR KLNR 260056Z AUTO 21009KT 10SM CLR 24/16 A2982 RMK AO2 SLP090 T02390161 $

More Conditions Fewer Conditions

10-Day Weather Forecast

Almanac

Astronomy

May. 25, 2015 Rise Set
Actual Time
Civil Twilight
Nautical Twilight
Astronomical Twilight
Moon
Length of Visible Light
Length of Day
Tomorrow will be .
, % of the Moon is Illuminated

Today's Extremes

State Highs State Lows

Community

WunderPhotos

Upload Photos

1,824,214 photos uploaded!

WunderBlogs® & News

Nearby

Air Quality

  Air Quality AQ Index Pollutant
Not available.

Snow Depth

Station Depth Elevation

Earthquake Activity

City Distance Mag. Time & Date
Minimum magnitude displayed is 2.5.

Coastal Water Temperatures

Place Temperature

Stations

Nearby Weather Stations

Station Location Temp. Windchill Dew Point Humidity Wind Precip. Elev Updated Type